Time;durP1;ratioP1;P1;durP2;ratioP2;P2;SDS_P1;SDS_P2;PMS_P1;PMS_P2;Temp;Humidity;BMP_temperature;BMP_pressure;BME280_temperature;BME280_humidity;BME280_pressure;Samples;Min_cycle;Max_cycle;Signal;HPM_P1;HPM_P2
2023/10/08 00:02:14;;;;;;;3.47;3.17;;;16.70;99.90;;;;;;5061011;28;20673;-72
2023/10/08 00:04:44;;;;;;;3.78;3.38;;;16.70;99.90;;;;;;5071146;28;20190;-73
2023/10/08 00:07:11;;;;;;;4.65;3.42;;;16.70;99.90;;;;;;5078278;28;20198;-71
2023/10/08 00:09:39;;;;;;;3.35;2.92;;;16.60;99.90;;;;;;5062122;28;20218;-71
2023/10/08 00:12:07;;;;;;;4.10;3.28;;;16.60;99.90;;;;;;5059490;28;20272;-70
2023/10/08 00:14:43;;;;;;;4.30;3.45;;;16.60;99.90;;;;;;5061898;28;20236;-71
2023/10/08 00:17:12;;;;;;;4.60;3.55;;;16.60;99.90;;;;;;5057813;28;20220;-71
2023/10/08 00:19:42;;;;;;;3.50;3.20;;;16.50;99.90;;;;;;5060053;28;20280;-71
2023/10/08 00:22:10;;;;;;;3.67;3.17;;;16.50;99.90;;;;;;5060271;28;20194;-72
2023/10/08 00:24:40;;;;;;;3.70;3.40;;;16.50;99.90;;;;;;5062070;28;20947;-72
2023/10/08 00:27:08;;;;;;;6.13;3.72;;;16.40;99.90;;;;;;5063895;28;20846;-70
2023/10/08 00:29:39;;;;;;;3.78;3.42;;;16.30;99.90;;;;;;5061423;28;20214;-72
2023/10/08 00:32:11;;;;;;;4.35;3.50;;;16.40;99.90;;;;;;5060783;28;20210;-72
2023/10/08 00:34:42;;;;;;;3.72;3.40;;;16.40;99.90;;;;;;5063185;28;20190;-72
2023/10/08 00:37:10;;;;;;;3.92;3.53;;;16.30;99.90;;;;;;5059472;28;20261;-70
2023/10/08 00:39:40;;;;;;;4.10;3.70;;;16.30;99.90;;;;;;5058992;28;20222;-72
2023/10/08 00:42:07;;;;;;;4.20;3.80;;;16.30;99.90;;;;;;5064181;28;20194;-72
2023/10/08 00:44:41;;;;;;;4.20;3.40;;;16.30;99.90;;;;;;5063678;28;20222;-72
2023/10/08 00:47:11;;;;;;;3.83;3.53;;;16.30;99.90;;;;;;5064314;28;20899;-72
2023/10/08 00:49:54;;;;;;;4.75;3.45;;;16.20;99.90;;;;;;5061885;28;20218;-72
2023/10/08 00:52:29;;;;;;;3.42;3.13;;;16.20;99.90;;;;;;5065279;28;20247;-72
2023/10/08 00:55:07;;;;;;;4.18;3.30;;;16.20;99.90;;;;;;5065352;28;20229;-71
2023/10/08 00:57:36;;;;;;;3.60;3.28;;;16.20;99.90;;;;;;5070427;28;20696;-71
2023/10/08 01:00:06;;;;;;;3.97;3.60;;;16.20;99.90;;;;;;5064289;28;20241;-72
2023/10/08 01:02:45;;;;;;;5.57;3.60;;;16.20;99.90;;;;;;5062230;28;20205;-72
2023/10/08 01:05:15;;;;;;;4.20;3.75;;;16.20;99.90;;;;;;5064866;28;20193;-73
2023/10/08 01:07:48;;;;;;;4.32;3.85;;;16.20;99.90;;;;;;5063691;28;20284;-71
2023/10/08 01:10:19;;;;;;;4.18;3.30;;;16.20;99.90;;;;;;5059737;28;20317;-71
2023/10/08 01:12:56;;;;;;;3.90;3.50;;;16.10;99.90;;;;;;5058539;28;20218;-71
2023/10/08 01:15:28;;;;;;;4.03;3.63;;;16.10;99.90;;;;;;5058891;28;20234;-72
2023/10/08 01:18:00;;;;;;;5.18;3.92;;;16.10;99.90;;;;;;5061896;28;20206;-71
2023/10/08 01:20:38;;;;;;;4.18;3.70;;;16.10;99.90;;;;;;5060362;28;20711;-71
2023/10/08 01:23:13;;;;;;;3.97;3.58;;;16.20;99.90;;;;;;5059952;28;20209;-72
2023/10/08 01:25:39;;;;;;;4.28;3.88;;;16.10;99.90;;;;;;5061324;28;20229;-72
2023/10/08 01:28:14;;;;;;;4.10;3.50;;;16.10;99.90;;;;;;5057257;28;20252;-70
2023/10/08 01:30:42;;;;;;;3.80;3.50;;;16.10;99.90;;;;;;5061102;28;20323;-73
2023/10/08 01:33:13;;;;;;;4.80;3.22;;;16.10;99.90;;;;;;5059656;28;20719;-72
2023/10/08 01:35:41;;;;;;;4.45;4.05;;;16.10;99.90;;;;;;5064013;28;20218;-71
2023/10/08 01:38:13;;;;;;;3.88;3.55;;;16.10;99.90;;;;;;5061967;28;20194;-71
2023/10/08 01:40:41;;;;;;;4.55;3.88;;;16.10;99.90;;;;;;5057259;28;20731;-73
2023/10/08 01:43:09;;;;;;;3.63;3.33;;;16.10;99.90;;;;;;5059894;28;20863;-71
2023/10/08 01:45:42;;;;;;;3.75;3.45;;;16.10;99.90;;;;;;5060335;28;20208;-71
2023/10/08 01:48:10;;;;;;;4.25;3.60;;;16.10;99.90;;;;;;5061770;28;20729;-72
2023/10/08 01:50:37;;;;;;;4.00;3.33;;;16.10;99.90;;;;;;5057474;28;20278;-71
2023/10/08 01:53:08;;;;;;;4.03;3.63;;;16.10;99.90;;;;;;5061707;28;20214;-71
2023/10/08 01:55:48;;;;;;;5.50;3.92;;;16.10;99.90;;;;;;5058203;28;20264;-71
2023/10/08 01:58:17;;;;;;;3.90;3.50;;;16.10;99.90;;;;;;5059306;28;20235;-72
2023/10/08 02:00:45;;;;;;;4.07;3.65;;;16.10;99.90;;;;;;5057118;28;20293;-73
2023/10/08 02:03:15;;;;;;;4.53;3.60;;;16.00;99.90;;;;;;5058476;28;20290;-73
2023/10/08 02:05:43;;;;;;;3.17;2.88;;;16.00;99.90;;;;;;5063430;28;20385;-75
2023/10/08 02:08:10;;;;;;;3.83;3.40;;;16.00;99.90;;;;;;5082184;28;20202;-72
2023/10/08 02:10:41;;;;;;;3.92;3.60;;;16.00;99.90;;;;;;5057115;28;21178;-72
2023/10/08 02:13:09;;;;;;;3.60;3.30;;;15.90;99.90;;;;;;5058649;28;20313;-72
2023/10/08 02:15:38;;;;;;;4.28;3.67;;;15.90;99.90;;;;;;5058917;28;20221;-71
2023/10/08 02:18:06;;;;;;;3.42;3.00;;;15.90;99.90;;;;;;5060775;28;20202;-71
2023/10/08 02:20:33;;;;;;;3.90;3.40;;;15.90;99.90;;;;;;5059071;28;21515;-72
2023/10/08 02:23:00;;;;;;;3.92;3.40;;;15.80;99.90;;;;;;5058613;28;20298;-71
2023/10/08 02:25:28;;;;;;;3.63;3.33;;;15.80;99.90;;;;;;5059652;28;20202;-72
2023/10/08 02:27:57;;;;;;;4.25;3.70;;;15.80;99.90;;;;;;5062203;28;20289;-72
2023/10/08 02:30:24;;;;;;;4.03;3.40;;;15.80;99.90;;;;;;5056623;28;20218;-72
2023/10/08 02:32:52;;;;;;;4.45;3.47;;;15.80;99.90;;;;;;5058333;28;20267;-71
2023/10/08 02:35:19;;;;;;;4.53;3.78;;;15.70;99.90;;;;;;5059306;28;20240;-71
2023/10/08 02:37:46;;;;;;;3.30;3.00;;;15.70;99.90;;;;;;5063106;28;20194;-72
2023/10/08 02:40:19;;;;;;;3.80;3.40;;;15.70;99.90;;;;;;5063251;28;20257;-72
2023/10/08 02:42:47;;;;;;;3.47;3.03;;;15.70;99.90;;;;;;5062744;28;20221;-72
2023/10/08 02:45:16;;;;;;;3.60;3.30;;;15.70;99.90;;;;;;5065690;28;20760;-71
2023/10/08 02:47:44;;;;;;;3.80;3.40;;;15.70;99.90;;;;;;5064609;28;20213;-72
2023/10/08 02:50:16;;;;;;;4.00;3.63;;;15.70;99.90;;;;;;5062988;28;20321;-72
2023/10/08 02:52:45;;;;;;;3.88;3.50;;;15.70;99.90;;;;;;5063148;28;20911;-71
2023/10/08 02:55:24;;;;;;;3.75;3.40;;;15.60;99.90;;;;;;5062942;28;20222;-71
2023/10/08 02:57:51;;;;;;;4.07;3.67;;;15.60;99.90;;;;;;5064035;28;20211;-71
2023/10/08 03:00:20;;;;;;;3.42;3.13;;;15.60;99.90;;;;;;5064807;28;20305;-71
2023/10/08 03:02:48;;;;;;;4.65;3.50;;;15.70;99.90;;;;;;5063159;28;20206;-71
2023/10/08 03:05:17;;;;;;;4.50;3.03;;;15.70;99.90;;;;;;5062551;28;20652;-73
2023/10/08 03:07:44;;;;;;;3.53;3.22;;;15.70;99.90;;;;;;5064118;28;20202;-71
2023/10/08 03:10:18;;;;;;;3.30;3.00;;;15.60;99.90;;;;;;5064959;28;20303;-74
2023/10/08 03:12:47;;;;;;;4.07;3.55;;;15.60;99.90;;;;;;5081505;28;20221;-72
2023/10/08 03:15:28;;;;;;;3.80;3.30;;;15.60;99.90;;;;;;5078277;28;20213;-73
2023/10/08 03:17:57;;;;;;;4.13;3.45;;;15.60;99.90;;;;;;5068945;28;20692;-71
2023/10/08 03:20:38;;;;;;;4.15;3.53;;;15.50;99.90;;;;;;5061833;28;20230;-71
2023/10/08 03:23:11;;;;;;;4.00;3.60;;;15.50;99.90;;;;;;5063022;28;20240;-72
2023/10/08 03:25:41;;;;;;;7.32;3.95;;;15.50;99.90;;;;;;5064659;28;20289;-72
2023/10/08 03:28:12;;;;;;;5.18;3.53;;;15.50;99.90;;;;;;5062652;28;20627;-71
2023/10/08 03:30:49;;;;;;;3.42;3.08;;;15.40;99.90;;;;;;5063140;28;20741;-71
2023/10/08 03:33:23;;;;;;;3.88;3.22;;;15.40;99.90;;;;;;5063540;28;20308;-72
2023/10/08 03:35:52;;;;;;;3.83;3.38;;;15.40;99.90;;;;;;5063598;28;20205;-72
2023/10/08 03:38:27;;;;;;;4.07;3.28;;;15.40;99.90;;;;;;5060854;28;20628;-70
2023/10/08 03:41:03;;;;;;;3.72;3.42;;;15.40;99.90;;;;;;5061976;28;20225;-71
2023/10/08 03:43:42;;;;;;;4.40;3.78;;;15.40;99.90;;;;;;5063003;28;20260;-71
2023/10/08 03:46:15;;;;;;;3.40;3.10;;;15.40;99.90;;;;;;5063750;28;20818;-71
2023/10/08 03:48:45;;;;;;;3.42;3.13;;;15.40;99.90;;;;;;5064631;28;20218;-71
2023/10/08 03:51:13;;;;;;;3.78;3.42;;;15.30;99.90;;;;;;5060983;28;20280;-71
2023/10/08 03:53:57;;;;;;;3.90;2.90;;;15.30;99.90;;;;;;5063460;28;20836;-71
2023/10/08 03:56:26;;;;;;;4.50;3.75;;;15.30;99.90;;;;;;5058886;28;20293;-73
2023/10/08 03:58:55;;;;;;;3.95;3.40;;;15.30;99.90;;;;;;5063314;28;20223;-71
2023/10/08 04:01:24;;;;;;;4.32;3.22;;;15.20;99.90;;;;;;5058468;28;20779;-71
2023/10/08 04:04:00;;;;;;;4.15;3.67;;;15.20;99.90;;;;;;5060756;28;20206;-73
2023/10/08 04:06:37;;;;;;;4.45;3.80;;;15.20;99.90;;;;;;5062025;28;20875;-72
2023/10/08 04:09:16;;;;;;;3.63;3.30;;;15.20;99.90;;;;;;5087347;28;20285;-72
2023/10/08 04:12:03;;;;;;;3.75;3.22;;;15.20;99.90;;;;;;5062107;28;20729;-71
2023/10/08 04:14:31;;;;;;;4.25;3.25;;;15.20;99.90;;;;;;5061050;28;20209;-72
2023/10/08 04:17:01;;;;;;;3.47;3.03;;;15.20;99.90;;;;;;5062622;28;20214;-71
2023/10/08 04:19:30;;;;;;;3.95;3.38;;;15.20;99.90;;;;;;5058794;28;20222;-73
2023/10/08 04:21:57;;;;;;;3.25;2.95;;;15.10;99.90;;;;;;5064563;28;20267;-71
2023/10/08 04:24:34;;;;;;;3.70;3.30;;;15.10;99.90;;;;;;5065347;28;20248;-73
2023/10/08 04:27:02;;;;;;;3.50;3.03;;;15.10;99.90;;;;;;5063890;28;20248;-72
2023/10/08 04:29:32;;;;;;;3.88;3.15;;;15.00;99.90;;;;;;5064336;28;20222;-71
2023/10/08 04:32:07;;;;;;;3.58;2.88;;;15.10;99.90;;;;;;5062590;28;20233;-72
2023/10/08 04:34:36;;;;;;;3.55;3.13;;;15.00;99.90;;;;;;5063073;28;20609;-71
2023/10/08 04:37:12;;;;;;;3.80;3.17;;;15.00;99.90;;;;;;5064927;28;20263;-71
2023/10/08 04:39:40;;;;;;;4.00;3.60;;;15.10;99.90;;;;;;5063345;28;20297;-72
2023/10/08 04:42:09;;;;;;;4.60;3.17;;;15.10;99.90;;;;;;5063096;28;20327;-70
2023/10/08 04:44:38;;;;;;;3.50;3.05;;;15.10;99.90;;;;;;5063078;28;20209;-70
2023/10/08 04:47:06;;;;;;;4.10;3.55;;;15.10;99.90;;;;;;5062441;28;20193;-73
2023/10/08 04:49:37;;;;;;;4.95;3.38;;;15.00;99.90;;;;;;5062812;28;20326;-72
2023/10/08 04:52:09;;;;;;;3.88;3.40;;;15.10;99.90;;;;;;5064788;28;20206;-71
2023/10/08 04:54:40;;;;;;;4.22;3.22;;;15.10;99.90;;;;;;5059870;28;20195;-73
2023/10/08 04:57:14;;;;;;;3.83;3.22;;;15.00;99.90;;;;;;5062926;28;20247;-71
2023/10/08 04:59:43;;;;;;;4.38;3.58;;;15.00;99.90;;;;;;5062117;28;20218;-73
2023/10/08 05:05:21;;;;;;;4.18;3.22;;;15.00;99.90;;;;;;5062263;28;20209;-71
2023/10/08 05:08:17;;;;;;;4.13;3.20;;;15.00;99.90;;;;;;5057006;28;20285;-72
2023/10/08 05:13:45;;;;;;;5.47;3.58;;;14.90;99.90;;;;;;5059632;28;20363;-74
2023/10/08 05:16:35;;;;;;;7.75;3.83;;;15.00;99.90;;;;;;5061503;28;20209;-72
2023/10/08 05:19:24;;;;;;;8.38;3.42;;;15.20;99.90;;;;;;5059071;28;20217;-72
2023/10/08 05:22:05;;;;;;;5.95;3.85;;;15.50;99.90;;;;;;5061797;28;20205;-72
2023/10/08 05:24:38;;;;;;;5.90;3.83;;;15.80;99.90;;;;;;5059707;28;20202;-74
2023/10/08 05:30:11;;;;;;;5.93;4.10;;;16.10;99.90;;;;;;5055117;28;20225;-71
2023/10/08 05:32:44;;;;;;;8.35;4.32;;;16.10;99.90;;;;;;5060827;28;20658;-72
2023/10/08 05:38:13;;;;;;;6.30;4.05;;;16.40;99.90;;;;;;5057784;28;20577;-72
2023/10/08 05:41:04;;;;;;;5.72;4.18;;;16.40;99.90;;;;;;5058342;28;20599;-72
2023/10/08 05:43:55;;;;;;;4.43;3.60;;;16.50;99.90;;;;;;5058874;28;20668;-73
2023/10/08 05:46:48;;;;;;;8.45;4.32;;;16.40;99.90;;;;;;5060106;28;20194;-72
2023/10/08 05:49:42;;;;;;;5.80;4.07;;;16.50;99.90;;;;;;5046449;28;20232;-72
2023/10/08 05:52:24;;;;;;;6.85;3.83;;;16.70;99.90;;;;;;5046870;28;20206;-72
2023/10/08 05:55:15;;;;;;;6.63;4.05;;;17.00;99.90;;;;;;5055045;28;20202;-71
2023/10/08 05:57:46;;;;;;;7.97;4.55;;;17.20;99.90;;;;;;5042354;28;20209;-72
2023/10/08 06:00:29;;;;;;;7.28;4.35;;;17.40;99.90;;;;;;5041485;28;20233;-73
2023/10/08 06:05:47;;;;;;;11.63;4.68;;;17.50;99.90;;;;;;5036790;28;20746;-72
2023/10/08 06:08:15;;;;;;;14.85;6.05;;;17.60;99.90;;;;;;5054300;28;20190;-71
2023/10/08 06:10:43;;;;;;;11.82;5.70;;;17.60;99.90;;;;;;5075943;28;20225;-73
2023/10/08 06:13:16;;;;;;;5.55;4.10;;;17.60;99.90;;;;;;5050476;28;20942;-72
2023/10/08 06:16:04;;;;;;;5.97;4.07;;;17.40;99.90;;;;;;5053662;28;20233;-72
2023/10/08 06:18:31;;;;;;;5.28;3.78;;;17.00;99.90;;;;;;5059036;28;20199;-71
2023/10/08 06:21:01;;;;;;;4.78;4.15;;;16.60;99.90;;;;;;5056242;28;20203;-72
2023/10/08 06:23:35;;;;;;;5.85;4.00;;;16.40;99.90;;;;;;5060454;28;20657;-72
2023/10/08 06:26:13;;;;;;;5.95;4.28;;;16.30;99.90;;;;;;5060141;28;20211;-71
2023/10/08 06:28:42;;;;;;;6.07;3.88;;;16.20;99.90;;;;;;5064866;28;20229;-72
2023/10/08 06:31:16;;;;;;;4.47;3.67;;;16.10;99.90;;;;;;5060624;28;20576;-72
2023/10/08 06:33:43;;;;;;;4.47;3.80;;;16.10;99.90;;;;;;5062827;28;20217;-71
2023/10/08 06:36:15;;;;;;;6.18;4.03;;;16.30;99.90;;;;;;5061931;28;20252;-72
2023/10/08 06:38:43;;;;;;;6.55;4.47;;;16.70;99.90;;;;;;5062535;28;20257;-72
2023/10/08 06:41:17;;;;;;;5.13;3.90;;;17.20;99.90;;;;;;5074584;28;20209;-73
2023/10/08 06:43:47;;;;;;;4.43;4.03;;;17.70;99.90;;;;;;5079346;28;20194;-73
2023/10/08 06:46:15;;;;;;;4.18;3.65;;;18.30;99.90;;;;;;5078761;28;20205;-73
2023/10/08 06:48:43;;;;;;;5.78;3.97;;;18.60;99.90;;;;;;5065668;28;20952;-72
2023/10/08 06:51:12;;;;;;;4.53;4.13;;;18.70;99.90;;;;;;5061242;28;20206;-72
2023/10/08 06:53:40;;;;;;;6.13;3.60;;;18.70;99.90;;;;;;5062978;28;20646;-72
2023/10/08 06:56:09;;;;;;;4.63;4.10;;;18.90;99.90;;;;;;5062101;28;20264;-72
2023/10/08 06:58:38;;;;;;;5.03;4.53;;;18.90;99.90;;;;;;5061787;28;20259;-72
2023/10/08 07:01:08;;;;;;;4.72;3.75;;;18.90;99.90;;;;;;5059679;28;20206;-72
2023/10/08 07:03:37;;;;;;;5.22;4.18;;;19.10;99.90;;;;;;5060483;28;20619;-72
2023/10/08 07:06:16;;;;;;;5.30;4.05;;;19.40;99.90;;;;;;5060702;28;20202;-73
2023/10/08 07:08:46;;;;;;;5.80;4.57;;;19.70;99.90;;;;;;5060298;28;20254;-72
2023/10/08 07:11:14;;;;;;;5.18;4.45;;;20.00;99.90;;;;;;5064113;28;20195;-72
2023/10/08 07:13:42;;;;;;;6.00;4.60;;;20.10;99.90;;;;;;5062727;28;20264;-73
2023/10/08 07:16:11;;;;;;;6.30;4.18;;;20.20;99.90;;;;;;5059796;28;20285;-72
2023/10/08 07:18:38;;;;;;;7.43;4.60;;;20.10;99.90;;;;;;5061581;28;20198;-72
2023/10/08 07:21:11;;;;;;;5.07;4.32;;;20.10;99.90;;;;;;5059135;28;20400;-72
2023/10/08 07:23:55;;;;;;;5.78;4.18;;;20.30;99.90;;;;;;5065405;28;20202;-72
2023/10/08 07:26:24;;;;;;;4.80;4.30;;;20.50;99.90;;;;;;5063265;28;20736;-72
2023/10/08 07:28:53;;;;;;;6.28;4.32;;;20.80;99.90;;;;;;5063943;28;20222;-72
2023/10/08 07:31:22;;;;;;;5.85;4.53;;;21.10;99.90;;;;;;5063448;28;20622;-72
2023/10/08 07:33:56;;;;;;;7.63;4.30;;;21.30;99.90;;;;;;5060986;28;20957;-72
2023/10/08 07:36:23;;;;;;;6.72;4.90;;;21.40;99.90;;;;;;5066103;28;20965;-72
2023/10/08 07:38:52;;;;;;;5.55;4.10;;;21.70;99.90;;;;;;5061109;28;20230;-72
2023/10/08 07:41:20;;;;;;;7.40;5.18;;;21.90;99.90;;;;;;5064623;28;20255;-72
2023/10/08 07:43:55;;;;;;;6.72;4.78;;;21.90;99.90;;;;;;5067386;28;20293;-72
2023/10/08 07:46:26;;;;;;;5.13;4.20;;;21.80;99.90;;;;;;5065140;28;20806;-71
2023/10/08 07:48:53;;;;;;;5.78;4.75;;;21.70;99.90;;;;;;5066584;28;20321;-72
2023/10/08 07:51:21;;;;;;;5.35;4.65;;;21.70;99.90;;;;;;5065202;28;20244;-72
2023/10/08 07:53:49;;;;;;;6.57;4.55;;;22.00;99.90;;;;;;5066421;28;20221;-72
2023/10/08 07:56:17;;;;;;;6.13;4.45;;;22.30;99.90;;;;;;5063574;28;20630;-71
2023/10/08 07:58:44;;;;;;;5.93;4.93;;;22.70;99.90;;;;;;5065957;28;20236;-72
2023/10/08 08:01:14;;;;;;;5.72;4.97;;;23.10;99.90;;;;;;5060597;28;20264;-71
2023/10/08 08:03:44;;;;;;;5.57;4.95;;;23.30;99.90;;;;;;5061132;28;20282;-72
2023/10/08 08:06:13;;;;;;;8.05;5.45;;;23.30;99.90;;;;;;5063173;28;20198;-73
2023/10/08 08:08:40;;;;;;;6.25;4.85;;;23.40;99.90;;;;;;5065865;28;20206;-72
2023/10/08 08:11:11;;;;;;;5.85;5.18;;;23.30;99.90;;;;;;5072380;28;20256;-71
2023/10/08 08:13:42;;;;;;;7.50;6.00;;;23.40;99.90;;;;;;5082297;28;20221;-72
2023/10/08 08:16:17;;;;;;;5.82;5.20;;;23.40;99.90;;;;;;5066271;28;20201;-71
2023/10/08 08:18:46;;;;;;;7.85;5.50;;;23.40;99.90;;;;;;5065096;28;20260;-72
2023/10/08 08:21:15;;;;;;;6.32;5.07;;;23.60;99.90;;;;;;5064074;28;20285;-72
2023/10/08 08:23:47;;;;;;;7.22;5.10;;;23.70;99.90;;;;;;5066240;28;20201;-72
2023/10/08 08:26:26;;;;;;;7.82;4.75;;;24.00;99.90;;;;;;5063111;28;20363;-71
2023/10/08 08:28:55;;;;;;;6.28;4.93;;;24.10;99.90;;;;;;5064677;28;20308;-71
2023/10/08 08:31:22;;;;;;;6.65;4.97;;;24.20;99.90;;;;;;5064431;28;20277;-71
2023/10/08 08:33:56;;;;;;;6.75;4.90;;;24.20;99.90;;;;;;5065133;28;20233;-71
2023/10/08 08:36:24;;;;;;;6.88;4.95;;;24.50;99.90;;;;;;5062533;28;20195;-72
2023/10/08 08:38:52;;;;;;;8.57;5.15;;;24.40;99.90;;;;;;5064330;28;20691;-72
2023/10/08 08:41:20;;;;;;;6.47;5.13;;;24.20;99.90;;;;;;5064177;28;20218;-71
2023/10/08 08:43:49;;;;;;;4.80;4.00;;;23.90;99.90;;;;;;5065376;28;20233;-72
2023/10/08 08:46:17;;;;;;;6.47;4.78;;;24.10;99.90;;;;;;5063467;28;20295;-72
2023/10/08 08:48:45;;;;;;;5.80;4.70;;;24.40;99.90;;;;;;5062923;28;20225;-71
2023/10/08 08:51:14;;;;;;;5.75;4.80;;;24.40;99.90;;;;;;5062217;28;20301;-71
2023/10/08 08:53:42;;;;;;;6.07;4.85;;;24.30;99.90;;;;;;5063411;28;20221;-71
2023/10/08 08:56:10;;;;;;;5.43;4.28;;;24.30;99.90;;;;;;5061428;28;20683;-71
2023/10/08 08:58:37;;;;;;;6.30;4.85;;;24.50;99.90;;;;;;5063760;28;20206;-71
2023/10/08 09:01:07;;;;;;;7.72;4.85;;;24.70;99.90;;;;;;5063970;28;20751;-71
2023/10/08 09:03:37;;;;;;;6.38;5.00;;;24.80;99.90;;;;;;5062521;28;20194;-72
2023/10/08 09:06:04;;;;;;;6.32;4.78;;;25.20;99.90;;;;;;5062942;28;20210;-71
2023/10/08 09:08:36;;;;;;;5.82;4.53;;;25.40;99.90;;;;;;5063370;28;20202;-71
2023/10/08 09:11:04;;;;;;;5.53;4.57;;;25.40;99.90;;;;;;5061080;28;20248;-71
2023/10/08 09:13:34;;;;;;;7.55;5.00;;;25.10;99.90;;;;;;5062308;28;20230;-71
2023/10/08 09:16:08;;;;;;;6.78;4.68;;;25.20;99.90;;;;;;5061113;28;20285;-71
2023/10/08 09:18:35;;;;;;;5.00;4.25;;;25.40;99.90;;;;;;5063878;28;20267;-71
2023/10/08 09:21:13;;;;;;;6.70;4.90;;;25.40;99.90;;;;;;5063827;28;20198;-71
2023/10/08 09:23:47;;;;;;;6.13;4.07;;;25.60;99.90;;;;;;5063751;28;20190;-72
2023/10/08 09:26:14;;;;;;;5.40;4.20;;;25.60;99.90;;;;;;5063974;28;20654;-71
2023/10/08 09:28:47;;;;;;;6.45;4.65;;;25.50;99.90;;;;;;5060066;28;20256;-71
2023/10/08 09:31:14;;;;;;;6.57;4.25;;;25.80;99.90;;;;;;5059405;28;20286;-72
2023/10/08 09:33:42;;;;;;;5.75;4.28;;;26.30;99.90;;;;;;5063770;28;20229;-71
2023/10/08 09:36:18;;;;;;;8.50;4.35;;;26.70;99.90;;;;;;5062892;28;20267;-72
2023/10/08 09:38:48;;;;;;;7.32;4.35;;;27.10;99.90;;;;;;5062909;28;20220;-71
2023/10/08 09:41:15;;;;;;;8.38;4.43;;;27.20;99.90;;;;;;5060457;28;20664;-72
2023/10/08 09:43:45;;;;;;;8.88;4.30;;;26.90;99.90;;;;;;5063878;28;20206;-71
2023/10/08 09:46:20;;;;;;;7.13;4.63;;;26.50;99.90;;;;;;5063184;28;20312;-71
2023/10/08 09:48:52;;;;;;;6.22;4.03;;;26.30;99.90;;;;;;5062737;28;20218;-72
2023/10/08 09:51:20;;;;;;;6.07;4.32;;;26.30;99.90;;;;;;5062757;28;20599;-71
2023/10/08 09:54:04;;;;;;;7.30;4.68;;;26.40;99.90;;;;;;5064102;28;20210;-72
2023/10/08 09:56:34;;;;;;;7.28;4.55;;;26.40;99.90;;;;;;5060458;28;20229;-71
2023/10/08 09:59:01;;;;;;;10.38;4.50;;;26.70;99.90;;;;;;5061285;28;20225;-71
2023/10/08 10:01:32;;;;;;;5.50;4.38;;;27.00;99.90;;;;;;5062137;28;20198;-71
2023/10/08 10:04:00;;;;;;;7.53;4.78;;;27.10;99.90;;;;;;5061878;28;20661;-72
2023/10/08 10:06:29;;;;;;;7.28;4.75;;;27.00;99.90;;;;;;5059890;28;20283;-71
2023/10/08 10:09:01;;;;;;;7.07;4.50;;;26.60;99.90;;;;;;5059968;28;20284;-72
2023/10/08 10:11:30;;;;;;;6.60;4.18;;;26.20;99.90;;;;;;5057053;28;20244;-72
2023/10/08 10:14:01;;;;;;;7.38;4.25;;;26.20;99.90;;;;;;5072835;28;20185;-72
2023/10/08 10:16:28;;;;;;;7.03;4.50;;;26.40;99.90;;;;;;5083931;28;20321;-73
2023/10/08 10:18:58;;;;;;;5.70;3.63;;;26.50;99.90;;;;;;5083003;28;20213;-72
2023/10/08 10:21:32;;;;;;;6.03;4.15;;;26.60;99.90;;;;;;5078320;28;20194;-72
2023/10/08 10:24:05;;;;;;;7.40;4.60;;;26.70;99.90;;;;;;5072539;28;20205;-71
2023/10/08 10:26:34;;;;;;;5.38;3.97;;;26.80;99.90;;;;;;5062156;28;20205;-71
2023/10/08 10:29:21;;;;;;;5.97;3.97;;;27.00;99.90;;;;;;5061956;28;20241;-72
2023/10/08 10:31:52;;;;;;;7.13;4.13;;;27.10;99.90;;;;;;5061019;28;20794;-72
2023/10/08 10:34:22;;;;;;;10.20;4.45;;;27.20;99.90;;;;;;5059485;28;20237;-72
2023/10/08 10:36:55;;;;;;;10.40;5.07;;;27.30;99.90;;;;;;5060579;28;20627;-72
2023/10/08 10:39:30;;;;;;;7.43;4.43;;;27.40;99.90;;;;;;5062332;28;20218;-72
2023/10/08 10:42:01;;;;;;;7.53;4.20;;;27.30;99.90;;;;;;5057766;28;20198;-72
2023/10/08 10:44:29;;;;;;;6.13;3.65;;;27.50;99.90;;;;;;5058122;28;20190;-71
2023/10/08 10:49:47;;;;;;;7.20;4.10;;;27.90;99.90;;;;;;5059951;28;20229;-72
2023/10/08 10:52:17;;;;;;;6.93;4.80;;;27.80;99.90;;;;;;5062351;28;20235;-71
2023/10/08 10:54:58;;;;;;;6.70;4.07;;;27.40;99.90;;;;;;5060829;28;20604;-70
2023/10/08 10:57:34;;;;;;;8.82;4.25;;;27.20;99.90;;;;;;5061371;28;20198;-72
2023/10/08 11:00:18;;;;;;;6.88;4.85;;;27.10;99.90;;;;;;5063220;28;20218;-72
2023/10/08 11:02:48;;;;;;;6.60;4.13;;;27.00;99.90;;;;;;5065661;28;20225;-72
2023/10/08 11:05:19;;;;;;;7.22;4.55;;;27.40;99.90;;;;;;5065650;28;20293;-71
2023/10/08 11:07:48;;;;;;;7.95;3.85;;;27.60;99.90;;;;;;5067090;28;20209;-72
2023/10/08 11:10:16;;;;;;;7.10;4.50;;;27.90;99.90;;;;;;5066493;28;20226;-72
2023/10/08 11:12:46;;;;;;;7.30;4.45;;;27.90;99.90;;;;;;5063881;28;20281;-72
2023/10/08 11:15:15;;;;;;;4.90;4.03;;;27.80;99.90;;;;;;5067712;28;20214;-72
2023/10/08 11:17:42;;;;;;;6.72;4.20;;;27.80;99.90;;;;;;5063854;28;20194;-72
2023/10/08 11:20:24;;;;;;;4.60;3.88;;;27.70;99.90;;;;;;5063189;28;20292;-71
2023/10/08 11:22:53;;;;;;;8.38;4.32;;;27.70;99.90;;;;;;5065383;28;20294;-74
2023/10/08 11:25:30;;;;;;;7.15;4.00;;;27.70;99.90;;;;;;5065843;28;20202;-70
2023/10/08 11:28:02;;;;;;;7.03;4.20;;;28.00;99.90;;;;;;5065935;28;20297;-72
2023/10/08 11:30:31;;;;;;;5.18;3.88;;;28.10;99.90;;;;;;5065501;28;20230;-71
2023/10/08 11:32:59;;;;;;;7.43;4.30;;;28.10;99.90;;;;;;5064263;28;20200;-72
2023/10/08 11:35:27;;;;;;;8.70;4.75;;;28.30;99.90;;;;;;5067010;28;20279;-73
2023/10/08 11:38:00;;;;;;;7.88;4.68;;;28.70;99.90;;;;;;5066044;28;20206;-73
2023/10/08 11:40:29;;;;;;;5.18;3.88;;;28.90;99.90;;;;;;5064986;28;20222;-73
2023/10/08 11:42:59;;;;;;;9.35;4.40;;;29.10;99.90;;;;;;5065951;28;20268;-73
2023/10/08 11:45:26;;;;;;;7.03;3.70;;;29.20;99.90;;;;;;5063506;28;20194;-71
2023/10/08 11:47:56;;;;;;;6.85;4.15;;;29.10;99.90;;;;;;5065532;28;20202;-72
2023/10/08 11:50:31;;;;;;;7.90;4.03;;;29.00;99.90;;;;;;5063430;28;20301;-73
2023/10/08 11:53:02;;;;;;;8.48;4.28;;;28.70;99.90;;;;;;5066125;28;20834;-73
2023/10/08 11:55:35;;;;;;;7.32;4.10;;;28.20;99.90;;;;;;5063966;28;20214;-72
2023/10/08 11:58:09;;;;;;;8.00;3.97;;;27.40;99.90;;;;;;5064228;28;20695;-73
2023/10/08 12:00:43;;;;;;;5.88;3.53;;;27.10;99.90;;;;;;5065397;28;20225;-73
2023/10/08 12:03:12;;;;;;;4.57;3.38;;;27.10;99.90;;;;;;5062131;28;20197;-72
2023/10/08 12:05:47;;;;;;;9.70;3.95;;;27.20;99.90;;;;;;5065772;28;20282;-72
2023/10/08 12:08:16;;;;;;;6.25;3.50;;;27.60;99.90;;;;;;5064398;28;20198;-71
2023/10/08 12:10:45;;;;;;;4.60;3.40;;;27.80;99.90;;;;;;5065233;28;20234;-72
2023/10/08 12:13:13;;;;;;;5.93;3.78;;;28.00;99.90;;;;;;5064563;28;20369;-74
2023/10/08 12:15:41;;;;;;;7.95;3.60;;;28.20;99.90;;;;;;5078749;28;20244;-74
2023/10/08 12:18:15;;;;;;;7.22;4.38;;;28.30;99.90;;;;;;5069602;28;20198;-74
2023/10/08 12:20:46;;;;;;;6.03;4.30;;;28.40;99.90;;;;;;5064896;28;20299;-73
2023/10/08 12:23:23;;;;;;;6.30;3.75;;;28.70;99.90;;;;;;5064800;28;20609;-73
2023/10/08 12:25:52;;;;;;;6.88;4.28;;;28.70;99.90;;;;;;5065245;28;20579;-72
2023/10/08 12:28:19;;;;;;;6.22;4.15;;;28.60;99.90;;;;;;5063617;28;20282;-72
2023/10/08 12:30:49;;;;;;;7.07;3.70;;;28.50;99.90;;;;;;5064011;28;20321;-73
2023/10/08 12:33:16;;;;;;;5.43;3.83;;;28.30;99.90;;;;;;5063043;28;20206;-72
2023/10/08 12:35:44;;;;;;;7.90;4.70;;;28.20;99.90;;;;;;5065611;28;20359;-71
2023/10/08 12:38:12;;;;;;;8.43;4.43;;;28.00;99.90;;;;;;5064444;28;20198;-72
2023/10/08 12:40:52;;;;;;;7.72;4.55;;;28.00;99.90;;;;;;5062525;28;20246;-72
2023/10/08 12:43:21;;;;;;;9.88;4.82;;;27.90;99.90;;;;;;5066639;28;20247;-73
2023/10/08 12:45:52;;;;;;;6.32;3.97;;;27.90;99.90;;;;;;5063716;28;20194;-73
2023/10/08 12:48:26;;;;;;;8.18;4.18;;;27.70;99.90;;;;;;5063191;28;20309;-72
2023/10/08 12:50:56;;;;;;;7.72;4.30;;;27.80;99.90;;;;;;5061302;28;20293;-70
2023/10/08 12:53:33;;;;;;;11.02;4.78;;;27.80;99.90;;;;;;5063032;28;20247;-73
2023/10/08 12:56:05;;;;;;;7.13;4.07;;;27.60;99.90;;;;;;5060346;28;20703;-72
2023/10/08 12:58:41;;;;;;;7.60;3.70;;;27.40;99.90;;;;;;5061462;28;20841;-73
2023/10/08 13:01:09;;;;;;;8.18;4.03;;;27.50;99.90;;;;;;5065231;28;20202;-72
2023/10/08 13:03:41;;;;;;;7.10;3.67;;;27.90;99.90;;;;;;5058292;28;20233;-73
2023/10/08 13:06:11;;;;;;;7.63;4.32;;;28.00;99.90;;;;;;5063098;28;20285;-72
2023/10/08 13:08:39;;;;;;;8.30;4.28;;;27.90;99.90;;;;;;5061177;28;20194;-73
2023/10/08 13:11:06;;;;;;;6.43;3.83;;;27.70;99.90;;;;;;5063736;28;20202;-73
2023/10/08 13:13:36;;;;;;;6.03;3.35;;;27.60;99.90;;;;;;5062863;28;20202;-73
2023/10/08 13:16:07;;;;;;;6.88;3.90;;;27.50;99.90;;;;;;5066102;28;20427;-73
2023/10/08 13:18:37;;;;;;;4.80;3.58;;;27.40;99.90;;;;;;5063279;28;20723;-73
2023/10/08 13:21:04;;;;;;;6.05;3.90;;;27.30;99.90;;;;;;5061338;28;20289;-71
2023/10/08 13:23:35;;;;;;;6.47;3.88;;;27.30;99.90;;;;;;5059776;28;20302;-72
2023/10/08 13:26:04;;;;;;;7.28;3.85;;;27.10;99.90;;;;;;5062647;28;20233;-73